createdAt,value
2018-11-07T00:00:00.862Z,97911.66
2018-11-07T00:02:30.227Z,97918.95
2018-11-07T00:04:59.296Z,97919.99
2018-11-07T00:07:28.552Z,97922.71
2018-11-07T00:10:03.459Z,97916.20
2018-11-07T00:12:32.884Z,97916.69
2018-11-07T00:15:01.570Z,97917.39
2018-11-07T00:17:31.818Z,97914.00
2018-11-07T00:20:00.917Z,97911.67
2018-11-07T00:22:29.674Z,97909.11
2018-11-07T00:24:58.833Z,97908.50
2018-11-07T00:27:28.320Z,97909.61
2018-11-07T00:29:57.168Z,97907.83
2018-11-07T00:32:26.187Z,97913.78
2018-11-07T00:34:54.651Z,97913.39
2018-11-07T00:37:23.829Z,97910.38
2018-11-07T00:39:53.489Z,97913.64
2018-11-07T00:42:22.028Z,97913.45
2018-11-07T00:44:50.764Z,97918.19
2018-11-07T00:47:19.628Z,97916.55
2018-11-07T00:49:48.348Z,97916.97
2018-11-07T00:52:17.344Z,97910.67
2018-11-07T00:54:47.734Z,97911.78
2018-11-07T00:57:16.321Z,97911.78
2018-11-07T00:59:46.382Z,97917.61
2018-11-07T01:02:15.427Z,97923.20
2018-11-07T01:04:45.246Z,97919.11
2018-11-07T01:07:14.071Z,97915.91
2018-11-07T01:09:43.396Z,97911.32
2018-11-07T01:12:11.964Z,97914.95
2018-11-07T01:14:40.633Z,97919.17
2018-11-07T01:17:09.305Z,97917.24
2018-11-07T01:19:39.099Z,97918.65
2018-11-07T01:22:07.815Z,97917.09
2018-11-07T01:24:36.264Z,97919.32
2018-11-07T01:27:05.745Z,97917.30
2018-11-07T01:29:34.263Z,97921.52
2018-11-07T01:32:03.040Z,97917.30
2018-11-07T01:34:31.508Z,97912.24
2018-11-07T01:36:59.996Z,97909.19
2018-11-07T01:39:28.699Z,97906.26
2018-11-07T01:41:57.624Z,97905.03
2018-11-07T01:44:26.195Z,97914.53
2018-11-07T01:46:54.676Z,97913.89
2018-11-07T01:49:23.192Z,97904.97
2018-11-07T01:51:52.119Z,97905.88
2018-11-07T01:54:20.903Z,97903.41
2018-11-07T01:56:50.217Z,97893.64
2018-11-07T01:59:19.518Z,97889.48
2018-11-07T02:01:48.024Z,97897.80
2018-11-07T02:04:16.608Z,97895.19
2018-11-07T02:06:45.658Z,97891.56
2018-11-07T02:09:14.702Z,97896.20
2018-11-07T02:11:44.230Z,97892.72
2018-11-07T02:14:12.714Z,97883.88
2018-11-07T02:16:41.508Z,97878.92
2018-11-07T02:19:10.523Z,97873.46
2018-11-07T02:21:39.113Z,97874.90
2018-11-07T02:24:08.108Z,97874.16
2018-11-07T02:26:36.992Z,97874.98
2018-11-07T02:29:11.672Z,97876.27
2018-11-07T02:31:41.510Z,97879.05
2018-11-07T02:34:10.019Z,97882.19
2018-11-07T02:36:39.189Z,97875.50
2018-11-07T02:39:10.820Z,97881.66
2018-11-07T02:41:39.895Z,97891.08
2018-11-07T02:44:08.882Z,97891.70
2018-11-07T02:46:37.299Z,97888.31
2018-11-07T02:49:05.728Z,97885.05
2018-11-07T02:51:34.939Z,97873.72
2018-11-07T02:54:03.515Z,97874.36
2018-11-07T02:56:32.542Z,97876.88
2018-11-07T02:59:01.486Z,97889.69
2018-11-07T03:01:30.149Z,97889.69
2018-11-07T03:03:59.288Z,97893.62
2018-11-07T03:06:27.743Z,97892.80
2018-11-07T03:08:58.182Z,97885.11
2018-11-07T03:11:27.080Z,97891.11
2018-11-07T03:13:55.618Z,97891.15
2018-11-07T03:16:24.455Z,97886.60
2018-11-07T03:18:53.290Z,97876.28
2018-11-07T03:21:22.425Z,97881.61
2018-11-07T03:23:51.711Z,97880.11
2018-11-07T03:26:21.632Z,97884.03
2018-11-07T03:28:50.502Z,97879.33
2018-11-07T03:31:18.995Z,97882.09
2018-11-07T03:33:47.495Z,97884.38
2018-11-07T03:36:16.113Z,97885.52
2018-11-07T03:38:45.667Z,97881.23
2018-11-07T03:41:14.382Z,97888.20
2018-11-07T03:43:42.838Z,97890.97
2018-11-07T03:46:11.251Z,97900.01
2018-11-07T03:48:39.906Z,97896.48
2018-11-07T03:51:09.999Z,97897.66
2018-11-07T03:53:38.946Z,97891.17
2018-11-07T03:56:07.446Z,97894.84
2018-11-07T03:58:36.827Z,97901.23
2018-11-07T04:01:05.394Z,97905.53
2018-11-07T04:03:33.828Z,97904.08
2018-11-07T04:06:02.839Z,97902.55
2018-11-07T04:08:31.990Z,97886.48
2018-11-07T04:11:00.411Z,97895.64
2018-11-07T04:13:29.237Z,97902.58
2018-11-07T04:15:58.674Z,97904.51
2018-11-07T04:18:27.171Z,97901.23
2018-11-07T04:20:55.946Z,97893.39
2018-11-07T04:23:24.525Z,97897.80
2018-11-07T04:25:53.388Z,97893.59
2018-11-07T04:28:21.831Z,97892.25
2018-11-07T04:30:50.310Z,97888.92
2018-11-07T04:33:19.710Z,97885.38
2018-11-07T04:35:48.788Z,97887.11
2018-11-07T04:38:17.350Z,97882.98
2018-11-07T04:40:45.890Z,97887.73
2018-11-07T04:43:15.006Z,97885.85
2018-11-07T04:45:43.435Z,97891.45
2018-11-07T04:48:11.879Z,97891.90
2018-11-07T04:50:41.326Z,97902.31
2018-11-07T04:53:09.895Z,97902.09
2018-11-07T04:55:38.412Z,97892.91
2018-11-07T04:58:06.964Z,97888.20
2018-11-07T05:00:35.845Z,97888.38
2018-11-07T05:03:04.836Z,97889.03
2018-11-07T05:05:33.747Z,97895.72
2018-11-07T05:08:02.393Z,97893.42
2018-11-07T05:10:30.992Z,97896.69
2018-11-07T05:13:00.321Z,97892.63
2018-11-07T05:15:29.305Z,97894.36
2018-11-07T05:17:57.883Z,97899.79
2018-11-07T05:20:26.760Z,97899.36
2018-11-07T05:22:55.400Z,97899.27
2018-11-07T05:25:23.829Z,97899.27
2018-11-07T05:27:52.330Z,97895.54
2018-11-07T05:30:20.787Z,97902.59
2018-11-07T05:32:49.255Z,97903.52
2018-11-07T05:35:17.773Z,97898.23
2018-11-07T05:37:46.220Z,97893.66
2018-11-07T05:40:14.619Z,97895.03
2018-11-07T05:42:43.650Z,97899.31
2018-11-07T05:45:12.277Z,97903.59
2018-11-07T05:47:40.959Z,97894.18
2018-11-07T05:50:10.795Z,97897.11
2018-11-07T05:52:40.097Z,97901.16
2018-11-07T05:55:09.330Z,97906.28
2018-11-07T05:57:38.259Z,97906.73
2018-11-07T06:00:09.507Z,97900.68
2018-11-07T06:02:38.119Z,97897.33
2018-11-07T06:05:08.343Z,97903.72
2018-11-07T06:07:38.642Z,97899.25
2018-11-07T06:10:10.186Z,97897.15
2018-11-07T06:12:38.974Z,97896.41
2018-11-07T06:15:09.683Z,97912.56
2018-11-07T06:17:38.445Z,97914.86
2018-11-07T06:20:08.384Z,97915.57
2018-11-07T06:22:37.583Z,97912.48
2018-11-07T06:25:07.618Z,97921.75
2018-11-07T06:27:36.020Z,97921.42
2018-11-07T06:30:07.419Z,97921.22
2018-11-07T06:32:36.166Z,97920.20
2018-11-07T06:35:06.624Z,97927.05
2018-11-07T06:37:35.127Z,97921.66
2018-11-07T06:40:05.456Z,97927.76
2018-11-07T06:42:34.519Z,97922.05
2018-11-07T06:45:03.095Z,97930.30
2018-11-07T06:47:31.920Z,97936.88
2018-11-07T06:50:00.533Z,97943.05
2018-11-07T06:52:29.344Z,97946.03
2018-11-07T06:54:58.696Z,97945.83
2018-11-07T06:57:27.360Z,97947.28
2018-11-07T06:59:55.802Z,97946.58
2018-11-07T07:02:24.476Z,97945.72
2018-11-07T07:04:52.940Z,97954.20
2018-11-07T07:07:21.418Z,97954.46
2018-11-07T07:09:50.721Z,97955.56
2018-11-07T07:12:19.287Z,97958.69
2018-11-07T07:14:47.945Z,97963.55
2018-11-07T07:17:16.711Z,97965.00
2018-11-07T07:19:45.352Z,97952.28
2018-11-07T07:22:14.696Z,97955.65
2018-11-07T07:24:43.649Z,97958.39
2018-11-07T07:27:12.731Z,97958.64
2018-11-07T07:29:41.241Z,97957.50
2018-11-07T07:32:10.004Z,97962.91
2018-11-07T07:34:38.836Z,97967.03
2018-11-07T07:37:08.615Z,97974.52
2018-11-07T07:39:37.457Z,97956.47
2018-11-07T07:42:06.181Z,97954.28
2018-11-07T07:44:34.926Z,97952.22
2018-11-07T07:47:03.469Z,97943.63
2018-11-07T07:49:32.809Z,97939.27
2018-11-07T07:52:01.457Z,97948.61
2018-11-07T07:54:30.435Z,97951.99
2018-11-07T07:56:59.397Z,97956.79
2018-11-07T07:59:27.872Z,97952.14
2018-11-07T08:01:56.336Z,97951.09
2018-11-07T08:04:24.981Z,97941.39
2018-11-07T08:06:53.732Z,97944.87
2018-11-07T08:09:22.955Z,97949.25
2018-11-07T08:11:51.610Z,97948.85
2018-11-07T08:14:20.041Z,97952.53
2018-11-07T08:16:48.492Z,97950.56
2018-11-07T08:19:16.949Z,97948.98
2018-11-07T08:21:45.663Z,97949.62
2018-11-07T08:24:14.412Z,97950.80
2018-11-07T08:26:42.979Z,97949.64
2018-11-07T08:29:11.755Z,97947.88
2018-11-07T08:31:40.720Z,97942.86
2018-11-07T08:34:09.424Z,97942.05
2018-11-07T08:36:38.394Z,97936.17
2018-11-07T08:39:10.338Z,97937.00
2018-11-07T08:41:39.558Z,97935.80
2018-11-07T08:44:08.309Z,97934.98
2018-11-07T08:46:37.384Z,97938.56
2018-11-07T08:49:06.061Z,97940.16
2018-11-07T08:51:35.645Z,97939.44
2018-11-07T08:54:04.605Z,97935.69
2018-11-07T08:56:33.067Z,97930.09
2018-11-07T08:59:01.990Z,97928.83
2018-11-07T09:01:30.930Z,97929.70
2018-11-07T09:03:59.465Z,97924.45
2018-11-07T09:06:28.119Z,97932.74
2018-11-07T09:08:56.685Z,97940.34
2018-11-07T09:11:25.394Z,97941.21
2018-11-07T09:13:53.888Z,97937.23
2018-11-07T09:16:22.736Z,97942.87
2018-11-07T09:18:51.166Z,97940.53
2018-11-07T09:21:19.571Z,97944.09
2018-11-07T09:23:47.979Z,97949.52
2018-11-07T09:26:17.201Z,97950.34
2018-11-07T09:28:46.386Z,97945.91
2018-11-07T09:31:15.225Z,97955.36
2018-11-07T09:33:43.638Z,97950.44
2018-11-07T09:36:12.038Z,97936.20
2018-11-07T09:38:40.731Z,97934.52
2018-11-07T09:41:09.471Z,97941.23
2018-11-07T09:43:38.053Z,97935.32
2018-11-07T09:46:08.382Z,97932.42
2018-11-07T09:48:37.093Z,97928.40
2018-11-07T09:51:06.005Z,97929.89
2018-11-07T09:53:34.766Z,97928.37
2018-11-07T09:56:03.256Z,97934.73
2018-11-07T09:58:31.689Z,97933.28
2018-11-07T10:01:01.404Z,97929.86
2018-11-07T10:03:29.864Z,97919.27
2018-11-07T10:05:58.658Z,97916.88
2018-11-07T10:08:28.660Z,97918.72
2018-11-07T10:10:57.497Z,97922.20
2018-11-07T10:13:27.110Z,97918.17
2018-11-07T10:15:56.441Z,97903.69
2018-11-07T10:18:27.217Z,97909.64
2018-11-07T10:20:55.894Z,97907.16
2018-11-07T10:23:24.794Z,97898.96
2018-11-07T10:25:53.253Z,97907.51
2018-11-07T10:28:22.094Z,97896.55
2018-11-07T10:30:50.545Z,97887.03
2018-11-07T10:33:19.409Z,97887.03
2018-11-07T10:35:47.869Z,97885.20
2018-11-07T10:38:16.427Z,97884.47
2018-11-07T10:40:44.830Z,97877.81
2018-11-07T10:43:13.370Z,97881.16
2018-11-07T10:45:41.781Z,97879.31
2018-11-07T10:48:10.202Z,97877.15
2018-11-07T10:50:38.850Z,97884.33
2018-11-07T10:53:07.917Z,97882.61
2018-11-07T10:55:36.295Z,97878.38
2018-11-07T10:58:05.864Z,97879.84
2018-11-07T11:00:40.221Z,97878.57
2018-11-07T11:03:14.370Z,97880.08
2018-11-07T11:05:43.434Z,97878.12
2018-11-07T11:08:12.213Z,97875.14
2018-11-07T11:10:41.813Z,97873.84
2018-11-07T11:13:10.784Z,97871.52
2018-11-07T11:15:39.193Z,97872.21
2018-11-07T11:18:07.674Z,97865.88
2018-11-07T11:20:40.497Z,97864.41
2018-11-07T11:23:09.052Z,97862.14
2018-11-07T11:25:37.887Z,97863.88
2018-11-07T11:28:06.512Z,97865.51
2018-11-07T11:30:34.981Z,97862.78
2018-11-07T11:33:04.010Z,97858.20
2018-11-07T11:35:32.785Z,97859.15
2018-11-07T11:38:01.560Z,97856.67
2018-11-07T11:40:30.763Z,97863.87
2018-11-07T11:42:59.753Z,97856.39
2018-11-07T11:45:28.142Z,97847.41
2018-11-07T11:47:56.517Z,97848.73
2018-11-07T11:50:25.089Z,97838.27
2018-11-07T11:52:53.570Z,97840.91
2018-11-07T11:55:23.137Z,97840.91
2018-11-07T11:57:51.522Z,97846.54
2018-11-07T12:00:21.393Z,97845.69
2018-11-07T12:02:49.944Z,97845.33
2018-11-07T12:05:19.106Z,97840.47
2018-11-07T12:07:47.611Z,97836.75
2018-11-07T12:10:19.722Z,97841.77
2018-11-07T12:12:50.460Z,97840.47
2018-11-07T12:15:19.986Z,97839.22
2018-11-07T12:17:49.225Z,97833.27
2018-11-07T12:20:18.038Z,97828.77
2018-11-07T12:22:46.424Z,97824.80
2018-11-07T12:25:15.919Z,97827.72
2018-11-07T12:27:44.601Z,97822.27
2018-11-07T12:30:15.803Z,97826.05
2018-11-07T12:32:45.668Z,97823.22
2018-11-07T12:35:15.263Z,97827.52
2018-11-07T12:37:43.669Z,97830.33
2018-11-07T12:40:12.964Z,97830.13
2018-11-07T12:42:41.640Z,97827.11
2018-11-07T12:45:12.092Z,97825.28
2018-11-07T12:47:41.111Z,97826.42
2018-11-07T12:50:14.432Z,97833.19
2018-11-07T12:52:43.777Z,97832.06
2018-11-07T12:55:12.717Z,97826.41
2018-11-07T12:57:41.497Z,97824.88
2018-11-07T13:00:20.091Z,97822.28
2018-11-07T13:02:50.067Z,97820.55
2018-11-07T13:05:19.872Z,97815.41
2018-11-07T13:07:49.022Z,97824.70
2018-11-07T13:10:18.796Z,97826.91
2018-11-07T13:12:47.848Z,97830.59
2018-11-07T13:15:16.848Z,97832.45
2018-11-07T13:17:46.411Z,97823.84
2018-11-07T13:20:17.965Z,97820.54
2018-11-07T13:22:49.208Z,97822.53
2018-11-07T13:25:18.182Z,97823.88
2018-11-07T13:27:46.652Z,97830.84
2018-11-07T13:30:20.947Z,97830.49
2018-11-07T13:32:50.076Z,97831.56
2018-11-07T13:35:19.371Z,97834.61
2018-11-07T13:37:50.554Z,97833.48
2018-11-07T13:40:23.635Z,97842.52
2018-11-07T13:42:52.069Z,97842.58
2018-11-07T13:45:21.701Z,97844.12
2018-11-07T13:47:51.452Z,97848.23
2018-11-07T13:50:20.521Z,97844.91
2018-11-07T13:52:49.538Z,97844.44
2018-11-07T13:55:18.054Z,97843.80
2018-11-07T13:57:47.007Z,97843.77
2018-11-07T14:00:20.149Z,97849.23
2018-11-07T14:02:49.102Z,97855.06
2018-11-07T14:05:17.797Z,97865.93
2018-11-07T14:07:46.780Z,97858.86
2018-11-07T14:10:20.450Z,97864.55
2018-11-07T14:12:50.036Z,97869.66
2018-11-07T14:15:18.561Z,97871.98
2018-11-07T14:17:47.254Z,97883.48
2018-11-07T14:20:15.936Z,97882.55
2018-11-07T14:22:45.289Z,97892.63
2018-11-07T14:25:15.104Z,97888.66
2018-11-07T14:27:43.742Z,97886.91
2018-11-07T14:30:14.171Z,97888.44
2018-11-07T14:32:48.820Z,97891.12
2018-11-07T14:35:17.544Z,97897.77
2018-11-07T14:37:46.066Z,97888.03
2018-11-07T14:40:14.516Z,97887.59
2018-11-07T14:42:42.942Z,97889.89
2018-11-07T14:45:12.130Z,97894.29
2018-11-07T14:47:41.491Z,97892.77
2018-11-07T14:50:13.354Z,97897.67
2018-11-07T14:52:42.828Z,97899.27
2018-11-07T14:55:12.123Z,97906.46
2018-11-07T14:57:41.608Z,97912.44
2018-11-07T15:00:13.471Z,97907.09
2018-11-07T15:02:44.895Z,97908.95
2018-11-07T15:05:14.456Z,97914.75
2018-11-07T15:07:43.511Z,97918.63
2018-11-07T15:10:13.750Z,97919.23
2018-11-07T15:12:42.424Z,97916.37
2018-11-07T15:15:13.077Z,97924.42
2018-11-07T15:17:42.238Z,97928.00
2018-11-07T15:20:12.496Z,97929.02
2018-11-07T15:22:41.504Z,97932.70
2018-11-07T15:25:11.120Z,97933.68
2018-11-07T15:27:41.371Z,97940.56
2018-11-07T15:30:11.116Z,97951.01
2018-11-07T15:32:40.402Z,97954.25
2018-11-07T15:35:09.718Z,97955.48
2018-11-07T15:37:38.814Z,97959.89
2018-11-07T15:40:11.403Z,97960.72
2018-11-07T15:42:40.438Z,97961.92
2018-11-07T15:45:10.325Z,97969.41
2018-11-07T15:47:39.041Z,97973.47
2018-11-07T15:50:13.085Z,97975.02
2018-11-07T15:52:41.559Z,97977.27
2018-11-07T15:55:10.031Z,97980.58
2018-11-07T15:57:38.436Z,97981.88
2018-11-07T16:00:11.016Z,97985.84
2018-11-07T16:02:40.315Z,97992.09
2018-11-07T16:05:09.821Z,97993.45
2018-11-07T16:07:39.153Z,98000.14
2018-11-07T16:10:09.654Z,97996.62
2018-11-07T16:12:38.841Z,98009.80
2018-11-07T16:15:10.875Z,98016.95
2018-11-07T16:17:39.927Z,98016.87
2018-11-07T16:20:11.356Z,98011.37
2018-11-07T16:22:40.472Z,98013.41
2018-11-07T16:25:09.244Z,98018.38
2018-11-07T16:27:38.476Z,98020.05
2018-11-07T16:30:10.402Z,98027.83
2018-11-07T16:32:39.393Z,98032.88
2018-11-07T16:35:08.522Z,98036.17
2018-11-07T16:37:37.297Z,98036.24
2018-11-07T16:40:09.080Z,98040.84
2018-11-07T16:42:38.087Z,98043.98
2018-11-07T16:45:09.106Z,98049.42
2018-11-07T16:47:37.542Z,98055.05
2018-11-07T16:50:09.223Z,98055.48
2018-11-07T16:52:38.063Z,98061.59
2018-11-07T16:55:07.590Z,98063.66
2018-11-07T16:57:38.352Z,98067.62
2018-11-07T17:00:15.473Z,98077.41
2018-11-07T17:02:45.105Z,98084.00
2018-11-07T17:05:14.719Z,98095.33
2018-11-07T17:07:43.498Z,98083.32
2018-11-07T17:10:12.631Z,98102.23
2018-11-07T17:12:41.013Z,98102.34
2018-11-07T17:15:09.430Z,98103.33
2018-11-07T17:17:38.296Z,98116.03
2018-11-07T17:20:09.532Z,98108.84
2018-11-07T17:22:38.585Z,98109.83
2018-11-07T17:25:09.939Z,98112.20
2018-11-07T17:27:39.488Z,98116.69
2018-11-07T17:30:10.004Z,98121.64
2018-11-07T17:32:39.759Z,98122.97
2018-11-07T17:35:11.042Z,98132.18
2018-11-07T17:37:39.815Z,98130.72
2018-11-07T17:40:12.696Z,98128.02
2018-11-07T17:42:41.881Z,98137.74
2018-11-07T17:45:13.844Z,98146.34
2018-11-07T17:47:43.254Z,98149.63
2018-11-07T17:50:13.205Z,98156.33
2018-11-07T17:52:42.079Z,98156.80
2018-11-07T17:55:12.754Z,98153.31
2018-11-07T17:57:41.259Z,98158.83
2018-11-07T18:00:14.133Z,98160.37
2018-11-07T18:02:43.412Z,98156.30
2018-11-07T18:05:12.038Z,98162.16
2018-11-07T18:07:40.553Z,98158.91
2018-11-07T18:10:11.935Z,98169.91
2018-11-07T18:12:40.478Z,98175.88
2018-11-07T18:15:09.713Z,98176.92
2018-11-07T18:17:39.057Z,98181.53
2018-11-07T18:20:09.966Z,98184.98
2018-11-07T18:22:38.717Z,98183.23
2018-11-07T18:25:09.962Z,98181.69
2018-11-07T18:27:39.192Z,98191.61
2018-11-07T18:30:10.424Z,98190.07
2018-11-07T18:35:32.452Z,98196.70
2018-11-07T18:38:01.164Z,98198.00
2018-11-07T18:40:30.882Z,98204.13
2018-11-07T18:43:01.168Z,98206.13
2018-11-07T18:45:30.338Z,98216.66
2018-11-07T18:47:58.823Z,98217.84
2018-11-07T18:50:28.013Z,98216.33
2018-11-07T18:52:56.489Z,98216.66
2018-11-07T18:55:25.780Z,98221.47
2018-11-07T18:57:54.863Z,98230.38
2018-11-07T19:00:24.876Z,98230.03
2018-11-07T19:02:54.324Z,98236.70
2018-11-07T19:05:22.950Z,98238.72
2018-11-07T19:07:51.445Z,98234.50
2018-11-07T19:10:21.550Z,98242.11
2018-11-07T19:12:50.756Z,98243.75
2018-11-07T19:15:19.782Z,98240.73
2018-11-07T19:17:49.464Z,98246.47
2018-11-07T19:20:18.490Z,98247.63
2018-11-07T19:22:47.124Z,98253.03
2018-11-07T19:25:17.576Z,98257.23
2018-11-07T19:27:46.618Z,98261.47
2018-11-07T19:30:17.515Z,98258.64
2018-11-07T19:32:47.521Z,98263.22
2018-11-07T19:35:17.211Z,98266.16
2018-11-07T19:37:46.988Z,98270.14
2018-11-07T19:40:23.627Z,98278.09
2018-11-07T19:42:52.117Z,98274.83
2018-11-07T19:45:21.373Z,98279.26
2018-11-07T19:47:50.082Z,98283.72
2018-11-07T19:50:19.649Z,98283.72
2018-11-07T19:52:48.930Z,98283.39
2018-11-07T19:55:21.086Z,98281.48
2018-11-07T19:57:54.880Z,98294.27
2018-11-07T20:00:23.343Z,98290.89
2018-11-07T20:02:51.917Z,98288.89
2018-11-07T20:05:21.446Z,98291.25
2018-11-07T20:07:51.096Z,98298.84
2018-11-07T20:10:20.439Z,98308.92
2018-11-07T20:12:50.310Z,98306.23
2018-11-07T20:15:20.093Z,98314.91
2018-11-07T20:17:49.603Z,98314.20
2018-11-07T20:20:18.872Z,98313.72
2018-11-07T20:22:47.794Z,98318.43
2018-11-07T20:25:16.920Z,98329.20
2018-11-07T20:27:45.739Z,98330.63
2018-11-07T20:30:15.551Z,98332.73
2018-11-07T20:32:44.058Z,98332.97
2018-11-07T20:35:17.239Z,98332.86
2018-11-07T20:37:46.086Z,98335.20
2018-11-07T20:40:17.054Z,98339.30
2018-11-07T20:42:45.507Z,98346.12
2018-11-07T20:45:15.139Z,98346.58
2018-11-07T20:47:43.555Z,98342.45
2018-11-07T20:50:15.123Z,98344.20
2018-11-07T20:52:44.400Z,98349.73
2018-11-07T20:55:13.647Z,98352.41
2018-11-07T20:57:42.438Z,98352.15
2018-11-07T21:00:18.337Z,98347.22
2018-11-07T21:02:47.353Z,98350.73
2018-11-07T21:05:17.727Z,98357.17
2018-11-07T21:07:46.419Z,98364.31
2018-11-07T21:10:20.300Z,98370.42
2018-11-07T21:12:49.293Z,98372.21
2018-11-07T21:15:18.814Z,98376.96
2018-11-07T21:17:47.569Z,98372.63
2018-11-07T21:20:16.080Z,98380.46
2018-11-07T21:22:45.503Z,98384.73
2018-11-07T21:25:14.586Z,98388.97
2018-11-07T21:27:43.544Z,98395.19
2018-11-07T21:30:13.836Z,98390.98
2018-11-07T21:32:43.717Z,98397.06
2018-11-07T21:35:13.141Z,98402.33
2018-11-07T21:37:42.740Z,98405.63
2018-11-07T21:40:14.335Z,98414.56
2018-11-07T21:42:43.098Z,98417.01
2018-11-07T21:45:12.951Z,98409.77
2018-11-07T21:47:42.216Z,98408.02
2018-11-07T21:50:13.152Z,98410.75
2018-11-07T21:52:41.987Z,98423.91
2018-11-07T21:55:11.818Z,98422.11
2018-11-07T21:57:41.133Z,98422.81
2018-11-07T22:00:12.883Z,98423.17
2018-11-07T22:02:42.399Z,98425.45
2018-11-07T22:05:12.112Z,98427.30
2018-11-07T22:07:41.336Z,98421.88
2018-11-07T22:10:11.616Z,98424.18
2018-11-07T22:12:40.355Z,98429.70
2018-11-07T22:15:10.208Z,98432.56
2018-11-07T22:17:39.231Z,98422.04
2018-11-07T22:20:14.500Z,98424.01
2018-11-07T22:22:43.670Z,98426.13
2018-11-07T22:25:12.551Z,98428.55
2018-11-07T22:27:41.986Z,98438.39
2018-11-07T22:30:12.911Z,98440.70
2018-11-07T22:32:42.287Z,98446.77
2018-11-07T22:35:12.228Z,98446.09
2018-11-07T22:37:41.641Z,98453.23
2018-11-07T22:40:12.872Z,98453.58
2018-11-07T22:42:41.476Z,98460.48
2018-11-07T22:45:10.843Z,98461.54
2018-11-07T22:47:40.451Z,98463.06
2018-11-07T22:50:11.698Z,98457.55
2018-11-07T22:52:41.711Z,98455.66
2018-11-07T22:55:10.782Z,98453.82
2018-11-07T22:57:46.415Z,98453.31
2018-11-07T23:00:22.447Z,98450.78
2018-11-07T23:02:53.017Z,98457.52
2018-11-07T23:05:21.605Z,98458.05
2018-11-07T23:07:51.449Z,98459.41
2018-11-07T23:10:19.922Z,98457.86
2018-11-07T23:12:49.701Z,98462.28
2018-11-07T23:15:26.555Z,98458.47
2018-11-07T23:17:55.149Z,98459.25
2018-11-07T23:20:23.959Z,98456.84
2018-11-07T23:22:52.928Z,98462.13
2018-11-07T23:25:21.709Z,98465.84
2018-11-07T23:27:51.030Z,98475.01
2018-11-07T23:30:20.364Z,98470.52
2018-11-07T23:32:49.629Z,98477.38
2018-11-07T23:35:18.404Z,98478.23
2018-11-07T23:37:46.921Z,98480.23
2018-11-07T23:40:15.667Z,98485.53
2018-11-07T23:42:44.693Z,98487.50
2018-11-07T23:45:13.690Z,98486.21
2018-11-07T23:47:43.098Z,98490.13
2018-11-07T23:50:11.812Z,98487.94
2018-11-07T23:52:46.956Z,98490.00
2018-11-07T23:55:18.428Z,98498.33
2018-11-07T23:57:47.368Z,98493.39
